Bradley, SC (29819)

12:01 AM EDT on August 04, 2015 (GMT -0400)
Bradley central | | Change Station
CLOSE
Current Station
Personal Weather Station
Location: Bradley, SC
Elevation: 600 ft
Nearby Weather Stations

Elev 600 ft 34.05 °N, 82.25 °W | Updated 3 minutes ago

Clear
Clear
75.6 °F
Feels Like 76 °F
N
0.0
Wind Variable Wind from SSE

Today
High -- | Low -- °F
--% Chance of Precip.
Yesterday
High -- | Low -- °F
Precip. -- in
6:42 AM 8:27 PM
Waning Gibbous, 81% visible
Pressure 29.96 in
Visibility 10.0 miles
Clouds Clear
Heat Index 76 °F
Dew Point 70 °F
Humidity 84%
Rainfall in
Snow Depth Not available.
UV 0 out of 12
Pollen 5.10 out of 12
Air Quality Not available.
Flu Activity Not available.
METAR KGRD 040356Z AUTO 15005KT 10SM CLR 25/22 A2998 RMK AO2 SLP143 T02500217

More Conditions Fewer Conditions

Pressure 29.96 in
Visibility 10.0 miles
Clouds Clear
Heat Index 76 °F
Dew Point 70 °F
Humidity 84%
Rainfall in
Snow Depth Not available.
UV 0 out of 12
Pollen 5.10 out of 12
Air Quality Not available.
Flu Activity Not available.
METAR KGRD 040356Z AUTO 15005KT 10SM CLR 25/22 A2998 RMK AO2 SLP143 T02500217

More Conditions Fewer Conditions

10-Day Weather Forecast

×

Almanac

Astronomy

Aug. 04, 2015 Rise Set
Actual Time
Civil Twilight
Nautical Twilight
Astronomical Twilight
Moon
Length of Visible Light
Length of Day
Tomorrow will be .
, % of the Moon is Illuminated

Today's Extremes

State Highs State Lows

Community

WunderPhotos

Upload Photos

1,843,853 photos uploaded!

WunderBlogs® & News

Nearby

Air Quality

  Air Quality AQ Index Pollutant
Not available.

Snow Depth

Station Depth Elevation

Earthquake Activity

City Distance Mag. Time & Date
Minimum magnitude displayed is 2.5.

Coastal Water Temperatures

Place Temperature

Stations

Nearby Weather Stations

Station Location Temp. Windchill Dew Point Humidity Wind Precip. Elev Updated Type